Time;durP1;ratioP1;P1;durP2;ratioP2;P2;SDS_P1;SDS_P2;PMS_P1;PMS_P2;Temp;Humidity;BMP_temperature;BMP_pressure;BME280_temperature;BME280_humidity;BME280_pressure;Samples;Min_cycle;Max_cycle;Signal;HPM_P1;HPM_P2
2022/01/20 00:02:20;;;;;;;0.70;0.70;;;;;;;-6.46;87.71;98363.09;4939505;28;20139;-85
2022/01/20 00:04:52;;;;;;;0.80;0.80;;;;;;;-6.37;87.80;98360.38;4930403;29;20075;-85
2022/01/20 00:07:30;;;;;;;0.70;0.70;;;;;;;-6.38;87.55;98365.78;4932952;29;20052;-85
2022/01/20 00:26:13;;;;;;;0.77;0.77;;;;;;;-6.26;87.90;98371.63;4949776;29;20079;-84
2022/01/20 00:33:51;;;;;;;0.70;0.70;;;;;;;-6.20;88.27;98360.50;4902447;29;20056;-84
2022/01/20 00:39:04;;;;;;;0.70;0.70;;;;;;;-6.14;87.91;98342.31;4957614;28;20114;-84
2022/01/20 00:41:32;;;;;;;0.80;0.80;;;;;;;-6.16;88.13;98343.47;4957180;28;20134;-83
2022/01/20 00:43:59;;;;;;;0.50;0.50;;;;;;;-6.15;88.00;98335.44;4936637;29;20051;-84
2022/01/20 00:46:29;;;;;;;0.70;0.70;;;;;;;-6.15;88.07;98334.63;4938152;29;20067;-84
2022/01/20 00:48:58;;;;;;;0.75;0.75;;;;;;;-6.15;88.10;98335.44;4937492;29;20063;-83
2022/01/20 00:51:25;;;;;;;0.60;0.60;;;;;;;-6.07;88.02;98333.84;4921004;29;20119;-83
2022/01/20 00:53:54;;;;;;;0.90;0.90;;;;;;;-6.03;87.77;98335.97;4937943;29;20044;-83
2022/01/20 00:56:22;;;;;;;0.60;0.60;;;;;;;-6.06;87.77;98335.47;4938319;29;20052;-83
2022/01/20 00:58:49;;;;;;;0.60;0.60;;;;;;;-6.06;87.98;98325.78;4937931;29;20047;-83
2022/01/20 01:01:17;;;;;;;0.60;0.60;;;;;;;-6.02;88.07;98326.31;4938499;29;20084;-84
2022/01/20 01:03:44;;;;;;;0.70;0.70;;;;;;;-6.02;87.92;98326.31;4937005;29;20047;-83
2022/01/20 01:06:26;;;;;;;0.80;0.80;;;;;;;-6.05;88.17;98323.97;4937451;29;20139;-82
2022/01/20 01:08:55;;;;;;;0.70;0.70;;;;;;;-6.03;88.17;98319.41;4937723;29;20059;-83
2022/01/20 01:11:24;;;;;;;0.70;0.70;;;;;;;-5.95;88.04;98311.56;4936293;29;20051;-83
2022/01/20 01:13:52;;;;;;;0.70;0.70;;;;;;;-6.01;88.06;98310.38;4936009;29;20475;-84
2022/01/20 01:16:25;;;;;;;0.60;0.60;;;;;;;-5.94;88.04;98307.97;4936517;29;20055;-83
2022/01/20 01:21:46;;;;;;;0.70;0.70;;;;;;;-5.92;88.07;98288.41;4938076;29;20407;-84
2022/01/20 01:24:14;;;;;;;0.73;0.73;;;;;;;-5.95;88.17;98307.16;4937134;29;20071;-83
2022/01/20 01:26:41;;;;;;;0.60;0.60;;;;;;;-5.90;88.27;98299.59;4937000;29;20556;-83
2022/01/20 01:29:27;;;;;;;0.80;0.80;;;;;;;-5.93;88.41;98302.50;4937655;29;20668;-83
2022/01/20 01:31:55;;;;;;;0.70;0.70;;;;;;;-5.89;88.20;98289.88;4937493;29;20085;-83
2022/01/20 01:34:23;;;;;;;0.70;0.70;;;;;;;-5.91;88.40;98307.59;4936148;29;20396;-84
2022/01/20 01:37:06;;;;;;;0.60;0.60;;;;;;;-5.85;88.38;98295.63;4938286;29;20059;-82
2022/01/20 01:39:33;;;;;;;0.80;0.80;;;;;;;-5.86;88.43;98283.50;4937730;29;20538;-84
2022/01/20 01:42:31;;;;;;;0.80;0.80;;;;;;;-5.87;88.53;98293.19;4937136;29;20067;-84
2022/01/20 01:45:15;;;;;;;0.70;0.70;;;;;;;-5.83;88.63;98284.00;4951579;29;20107;-84
2022/01/20 01:47:43;;;;;;;0.77;0.77;;;;;;;-5.75;88.23;98291.09;4935679;29;20056;-83
2022/01/20 01:50:10;;;;;;;0.70;0.70;;;;;;;-5.80;88.38;98291.56;4935252;29;20060;-83
2022/01/20 01:52:38;;;;;;;0.70;0.70;;;;;;;-5.76;88.47;98303.41;4935333;29;20048;-85
2022/01/20 01:55:06;;;;;;;0.80;0.80;;;;;;;-5.81;88.45;98271.53;4919348;29;20494;-83
2022/01/20 01:57:39;;;;;;;0.70;0.70;;;;;;;-5.81;88.65;98275.97;4920795;29;20059;-84
2022/01/20 02:00:11;;;;;;;0.70;0.70;;;;;;;-5.80;88.71;98275.78;4936464;29;20058;-85
2022/01/20 02:02:47;;;;;;;0.73;0.73;;;;;;;-5.81;88.65;98289.91;4936044;29;20051;-83
2022/01/20 02:05:20;;;;;;;0.75;0.75;;;;;;;-5.81;88.79;98279.41;4936495;29;20083;-83
2022/01/20 02:18:53;;;;;;;0.70;0.70;;;;;;;-5.82;89.07;98254.13;4922299;29;20052;-84
2022/01/20 02:22:01;;;;;;;0.90;0.90;;;;;;;-5.81;89.27;98250.50;4935117;29;20063;-84
2022/01/20 02:24:39;;;;;;;0.70;0.70;;;;;;;-5.76;89.28;98250.03;4936303;29;20131;-82
2022/01/20 02:27:06;;;;;;;0.70;0.70;;;;;;;-5.78;89.20;98247.53;4945502;29;20413;-83
2022/01/20 02:29:38;;;;;;;0.75;0.75;;;;;;;-5.81;89.21;98245.25;4945415;29;20076;-83
2022/01/20 02:32:07;;;;;;;0.73;0.73;;;;;;;-5.75;89.28;98249.03;4937067;29;20051;-83
2022/01/20 02:34:34;;;;;;;0.70;0.70;;;;;;;-5.72;89.03;98231.16;4935079;29;20051;-84
2022/01/20 02:37:09;;;;;;;0.85;0.85;;;;;;;-5.78;89.34;98236.22;4919928;29;20079;-83
2022/01/20 02:45:03;;;;;;;0.63;0.63;;;;;;;-5.79;89.38;98219.63;4934646;29;20079;-84
2022/01/20 02:47:33;;;;;;;0.60;0.60;;;;;;;-5.76;89.62;98229.81;4937521;29;20142;-86
2022/01/20 02:50:01;;;;;;;0.60;0.60;;;;;;;-5.75;89.64;98220.94;4934032;29;20047;-84
2022/01/20 02:52:34;;;;;;;0.70;0.70;;;;;;;-5.72;89.66;98222.41;4934561;29;20414;-84
2022/01/20 02:55:01;;;;;;;0.80;0.80;;;;;;;-5.74;89.85;98214.72;4935344;29;20146;-83
2022/01/20 02:57:29;;;;;;;0.70;0.70;;;;;;;-5.73;89.82;98218.97;4935813;29;20489;-83
2022/01/20 02:59:57;;;;;;;0.68;0.68;;;;;;;-5.73;89.78;98208.47;4935957;29;20055;-83
2022/01/20 03:02:25;;;;;;;0.50;0.50;;;;;;;-5.70;89.83;98209.94;4936288;29;20054;-84
2022/01/20 03:04:58;;;;;;;0.60;0.60;;;;;;;-5.66;89.89;98203.41;4933933;29;20051;-84
2022/01/20 03:07:31;;;;;;;0.82;0.82;;;;;;;-5.73;89.66;98200.56;4933893;29;20150;-83
2022/01/20 03:09:59;;;;;;;0.70;0.70;;;;;;;-5.71;89.91;98192.53;4933489;29;20255;-83
2022/01/20 03:12:28;;;;;;;0.70;0.70;;;;;;;-5.68;90.17;98197.47;4918666;29;20070;-82
2022/01/20 03:15:00;;;;;;;0.63;0.63;;;;;;;-5.69;90.01;98188.75;4934873;29;20054;-83
2022/01/20 03:17:30;;;;;;;0.50;0.50;;;;;;;-5.68;89.95;98198.28;4934080;29;20059;-87
2022/01/20 03:19:59;;;;;;;0.65;0.65;;;;;;;-5.65;89.96;98186.63;4932826;29;20062;-82
2022/01/20 03:22:29;;;;;;;0.77;0.77;;;;;;;-5.69;89.75;98196.66;4934843;29;20051;-80
2022/01/20 03:24:58;;;;;;;0.70;0.70;;;;;;;-5.70;90.21;98212.56;4934423;29;20567;-81
2022/01/20 03:27:25;;;;;;;0.65;0.65;;;;;;;-5.69;90.19;98201.91;4933658;29;20055;-81
2022/01/20 03:29:52;;;;;;;0.80;0.80;;;;;;;-5.66;90.27;98190.25;4934828;29;20467;-83
2022/01/20 03:32:20;;;;;;;0.60;0.60;;;;;;;-5.67;90.14;98228.88;4933471;29;20058;-80
2022/01/20 03:34:47;;;;;;;0.70;0.70;;;;;;;-5.63;90.22;98200.44;4933660;29;20433;-84
2022/01/20 03:37:15;;;;;;;0.60;0.60;;;;;;;-5.66;90.29;98198.94;4916577;29;20055;-83
2022/01/20 03:39:56;;;;;;;0.57;0.57;;;;;;;-5.64;90.18;98176.97;4933391;29;20051;-83
2022/01/20 03:42:26;;;;;;;0.70;0.70;;;;;;;-5.68;90.25;98179.88;4917641;29;20086;-82
2022/01/20 03:44:54;;;;;;;0.70;0.70;;;;;;;-5.66;90.36;98166.59;4932333;29;20079;-83
2022/01/20 03:47:24;;;;;;;0.55;0.55;;;;;;;-5.63;90.70;98165.44;4575062;29;10000173;-84
2022/01/20 03:52:29;;;;;;;0.60;0.60;;;;;;;-5.61;90.60;98174.00;4910901;29;20060;-83
2022/01/20 03:54:56;;;;;;;0.77;0.77;;;;;;;-5.62;90.72;98167.06;4911729;29;20151;-83
2022/01/20 03:57:27;;;;;;;0.70;0.70;;;;;;;-5.59;90.74;98164.97;4912215;29;20131;-84
2022/01/20 03:59:54;;;;;;;0.60;0.60;;;;;;;-5.59;90.44;98190.44;4911913;29;20083;-84
2022/01/20 04:02:39;;;;;;;;;;;;;;;-5.64;90.88;98169.06;4912033;29;20058;-84
2022/01/20 04:05:26;;;;;;;0.70;0.70;;;;;;;-5.63;90.89;98157.56;4911890;29;19927;-85
2022/01/20 04:08:11;;;;;;;0.60;0.60;;;;;;;-5.62;90.88;98159.19;4912010;29;20063;-86
2022/01/20 04:10:38;;;;;;;0.63;0.63;;;;;;;-5.61;90.80;98171.38;4913984;29;20507;-85
2022/01/20 04:13:06;;;;;;;0.60;0.60;;;;;;;-5.62;91.06;98162.66;4913398;29;20098;-81
2022/01/20 04:15:38;;;;;;;0.60;0.60;;;;;;;-5.62;91.11;98157.41;4913425;29;20048;-82
2022/01/20 04:18:07;;;;;;;0.50;0.50;;;;;;;-5.60;91.09;98165.13;4929059;29;20052;-83
2022/01/20 04:20:34;;;;;;;0.60;0.60;;;;;;;-5.60;91.28;98159.84;4914467;29;20516;-82
2022/01/20 04:23:02;;;;;;;0.60;0.60;;;;;;;-5.60;91.36;98147.53;4915632;29;20135;-83
2022/01/20 04:25:29;;;;;;;0.50;0.50;;;;;;;-5.59;91.16;98151.00;4929416;29;20120;-81
2022/01/20 04:27:56;;;;;;;0.80;0.80;;;;;;;-5.60;91.24;98151.97;4915591;29;20055;-82
2022/01/20 04:30:23;;;;;;;0.70;0.70;;;;;;;-5.58;91.29;98157.91;4913416;29;20052;-82
2022/01/20 04:32:50;;;;;;;0.63;0.63;;;;;;;-5.57;91.26;98146.38;4911557;29;20059;-83
2022/01/20 04:35:20;;;;;;;0.70;0.70;;;;;;;-5.61;91.60;98134.56;4929112;29;20108;-84
2022/01/20 04:37:48;;;;;;;0.70;0.70;;;;;;;-5.63;91.57;98128.63;4928997;29;20058;-82
2022/01/20 04:40:16;;;;;;;0.55;0.55;;;;;;;-5.62;91.71;98138.16;4932411;29;20087;-83
2022/01/20 04:42:46;;;;;;;0.55;0.55;;;;;;;-5.60;91.68;98137.00;4933181;29;20470;-82
2022/01/20 04:45:19;;;;;;;0.70;0.70;;;;;;;-5.62;91.92;98140.78;4928936;29;20099;-82
2022/01/20 04:48:00;;;;;;;0.60;0.60;;;;;;;-5.63;91.82;98141.78;4932290;29;20056;-82
2022/01/20 04:58:46;;;;;;;0.70;0.70;;;;;;;-5.59;92.28;98151.81;4918409;29;20090;-83
2022/01/20 05:01:14;;;;;;;0.50;0.50;;;;;;;-5.58;92.40;98150.00;4900521;29;20072;-83
2022/01/20 05:04:03;;;;;;;0.75;0.75;;;;;;;-5.57;92.39;98130.59;4952043;29;20052;-82
2022/01/20 05:06:58;;;;;;;0.70;0.70;;;;;;;-5.58;92.40;98127.16;4931994;29;20066;-82
2022/01/20 05:09:26;;;;;;;0.80;0.80;;;;;;;-5.58;92.49;98129.78;4935114;29;20051;-82
2022/01/20 05:12:04;;;;;;;0.70;0.70;;;;;;;-5.64;92.61;98114.69;4935587;29;20044;-82
2022/01/20 05:14:33;;;;;;;0.60;0.60;;;;;;;-5.59;92.62;98122.91;4934361;29;20438;-81
2022/01/20 05:17:03;;;;;;;0.57;0.57;;;;;;;-5.55;92.63;98113.69;4924250;29;20048;-81
2022/01/20 05:19:32;;;;;;;0.50;0.50;;;;;;;-5.56;92.49;98117.31;4919916;29;20434;-82
2022/01/20 05:22:02;;;;;;;0.60;0.60;;;;;;;-5.60;92.65;98115.16;4921742;29;20146;-82
2022/01/20 05:24:38;;;;;;;0.60;0.60;;;;;;;-5.57;92.75;98114.81;4924592;29;20048;-81
2022/01/20 05:27:06;;;;;;;0.60;0.60;;;;;;;-5.56;92.93;98116.50;4924544;29;20043;-83
2022/01/20 05:29:34;;;;;;;0.70;0.70;;;;;;;-5.54;92.95;98107.44;4928678;29;20082;-84
2022/01/20 05:32:02;;;;;;;0.70;0.70;;;;;;;-5.51;93.15;98120.25;4935244;29;20055;-85
2022/01/20 05:34:30;;;;;;;0.70;0.70;;;;;;;-5.49;92.87;98112.22;4923738;29;20060;-81
2022/01/20 05:36:58;;;;;;;0.70;0.70;;;;;;;-5.48;92.64;98098.06;4933209;29;20214;-82
2022/01/20 05:39:25;;;;;;;0.55;0.55;;;;;;;-5.51;92.69;98082.63;4932498;29;20087;-83
2022/01/20 05:41:57;;;;;;;0.60;0.60;;;;;;;-5.50;92.72;98105.31;4916966;29;20067;-82
2022/01/20 05:44:36;;;;;;;0.60;0.60;;;;;;;-5.50;92.90;98095.59;4919248;29;20107;-82
2022/01/20 05:47:11;;;;;;;0.70;0.70;;;;;;;-5.47;92.94;98097.94;4925049;29;20546;-82
2022/01/20 05:49:56;;;;;;;0.63;0.63;;;;;;;-5.42;92.94;98097.41;4931173;29;20643;-83
2022/01/20 05:52:25;;;;;;;0.70;0.70;;;;;;;-5.41;92.72;98099.06;4929485;29;20055;-81
2022/01/20 05:54:52;;;;;;;0.70;0.70;;;;;;;-5.39;92.59;98093.63;4925947;29;20052;-82
2022/01/20 05:57:23;;;;;;;0.60;0.60;;;;;;;-5.40;92.51;98086.72;4936001;29;20070;-81
2022/01/20 05:59:53;;;;;;;0.63;0.63;;;;;;;-5.36;92.56;98095.94;4927085;29;20048;-81
2022/01/20 06:02:35;;;;;;;0.60;0.60;;;;;;;-5.39;92.23;98080.47;4909481;29;20071;-83
2022/01/20 06:05:05;;;;;;;0.80;0.80;;;;;;;-5.36;92.17;98080.16;4928127;29;20503;-83
2022/01/20 06:07:32;;;;;;;0.63;0.63;;;;;;;-5.35;92.03;98087.06;4920645;29;20052;-81
2022/01/20 06:10:01;;;;;;;0.70;0.70;;;;;;;-5.37;92.00;98081.94;4583811;29;10000464;-81
2022/01/20 06:12:28;;;;;;;0.52;0.52;;;;;;;-5.34;92.19;98084.28;4924343;29;20098;-82
2022/01/20 06:14:58;;;;;;;0.60;0.60;;;;;;;-5.36;91.83;98067.84;4935154;29;20107;-83
2022/01/20 06:17:29;;;;;;;0.70;0.70;;;;;;;-5.33;92.11;98072.75;4936517;29;20155;-82
2022/01/20 06:20:07;;;;;;;0.57;0.57;;;;;;;-5.33;92.08;98059.59;4923450;29;20058;-86
2022/01/20 06:22:35;;;;;;;0.70;0.70;;;;;;;-5.31;92.09;98062.91;4912368;29;20051;-83
2022/01/20 06:25:06;;;;;;;0.55;0.55;;;;;;;-5.30;92.03;98043.47;4911574;29;20059;-83
2022/01/20 06:27:34;;;;;;;0.50;0.50;;;;;;;-5.35;91.88;98052.88;4935704;29;20066;-83
2022/01/20 06:30:01;;;;;;;0.60;0.60;;;;;;;-5.31;91.90;98062.09;4915734;29;20404;-83
2022/01/20 06:32:29;;;;;;;0.70;0.70;;;;;;;-5.33;92.04;98061.41;4927291;29;20143;-82
2022/01/20 06:34:56;;;;;;;0.70;0.70;;;;;;;-5.34;91.99;98068.50;4917652;29;20495;-82
2022/01/20 06:37:26;;;;;;;0.70;0.70;;;;;;;-5.29;91.87;98049.56;4927478;29;20059;-82
2022/01/20 06:39:56;;;;;;;0.60;0.60;;;;;;;-5.31;92.07;98052.38;4901062;29;20080;-81
2022/01/20 06:42:23;;;;;;;0.80;0.80;;;;;;;-5.30;91.80;98051.38;4903245;29;20120;-79
2022/01/20 06:44:51;;;;;;;0.68;0.68;;;;;;;-5.34;91.69;98044.81;4915766;29;20059;-80
2022/01/20 06:47:20;;;;;;;0.60;0.60;;;;;;;-5.31;91.77;98067.34;4922667;29;20076;-80
2022/01/20 06:49:49;;;;;;;0.80;0.80;;;;;;;-5.33;91.83;98049.09;4908498;29;20424;-82
2022/01/20 06:52:17;;;;;;;0.68;0.68;;;;;;;-5.35;91.69;98056.31;4929327;29;20055;-82
2022/01/20 06:54:44;;;;;;;0.80;0.80;;;;;;;-5.28;92.05;98059.94;4928262;29;20114;-83
2022/01/20 06:57:22;;;;;;;0.60;0.60;;;;;;;-5.32;91.86;98049.91;4946880;29;20186;-82
2022/01/20 06:59:50;;;;;;;0.55;0.55;;;;;;;-5.29;91.86;98060.09;4912893;29;20483;-82
2022/01/20 07:02:17;;;;;;;0.70;0.70;;;;;;;-5.30;92.17;98051.38;4924608;29;20135;-84
2022/01/20 07:04:48;;;;;;;0.80;0.80;;;;;;;-5.24;91.86;98055.16;4918432;29;20055;-83
2022/01/20 07:07:18;;;;;;;0.70;0.70;;;;;;;-5.20;92.05;98058.28;4928393;29;20123;-84
2022/01/20 07:10:07;;;;;;;0.60;0.60;;;;;;;-5.16;91.90;98056.97;4920279;29;20136;-82
2022/01/20 07:12:44;;;;;;;0.70;0.70;;;;;;;-5.18;91.47;98064.19;4910030;29;20079;-81
2022/01/20 07:15:13;;;;;;;0.68;0.68;;;;;;;-5.21;91.58;98067.97;4926810;29;20055;-81
2022/01/20 07:17:42;;;;;;;0.75;0.75;;;;;;;-5.21;91.48;98062.72;4917698;29;20063;-80
2022/01/20 07:20:10;;;;;;;0.80;0.80;;;;;;;-5.23;91.53;98064.69;4923072;29;20510;-81
2022/01/20 07:22:58;;;;;;;0.60;0.60;;;;;;;-5.20;91.45;98058.28;4897313;29;20106;-80
2022/01/20 07:25:26;;;;;;;0.65;0.65;;;;;;;-5.25;91.29;98056.13;4911259;29;20430;-82
2022/01/20 07:28:04;;;;;;;0.90;0.90;;;;;;;-5.26;91.50;98041.34;4931414;29;20047;-81
2022/01/20 07:30:38;;;;;;;0.90;0.90;;;;;;;-5.24;91.23;98039.38;4904337;29;20051;-80
2022/01/20 07:33:05;;;;;;;0.68;0.68;;;;;;;-5.23;91.52;98041.84;4928779;29;20078;-83
2022/01/20 07:35:36;;;;;;;0.50;0.50;;;;;;;-5.17;91.42;98056.13;4921413;29;20622;-82
2022/01/20 07:38:04;;;;;;;0.80;0.80;;;;;;;-5.18;91.32;98041.34;4913840;29;20052;-81
2022/01/20 07:40:32;;;;;;;0.52;0.52;;;;;;;-5.09;91.04;98060.53;4914036;29;20107;-83
2022/01/20 07:43:00;;;;;;;0.80;0.80;;;;;;;-5.09;90.92;98042.97;4918990;29;20047;-82
2022/01/20 07:45:35;;;;;;;;;;;;;;;-5.10;90.95;98038.69;4922835;29;20535;-82
2022/01/20 07:48:22;;;;;;;0.70;0.70;;;;;;;-5.10;90.77;98040.50;4938420;29;19934;-83
2022/01/20 07:51:17;;;;;;;0.60;0.60;;;;;;;-5.07;91.00;98042.78;4919117;29;20576;-84
2022/01/20 07:53:54;;;;;;;0.63;0.63;;;;;;;-5.08;90.96;98041.97;4940664;29;20235;-86
2022/01/20 07:56:21;;;;;;;0.68;0.68;;;;;;;-5.05;90.81;98040.81;4929566;29;20107;-83
2022/01/20 07:58:52;;;;;;;0.63;0.63;;;;;;;-5.02;91.04;98049.16;4899980;29;20059;-83
2022/01/20 08:01:24;;;;;;;0.80;0.80;;;;;;;-4.94;91.10;98050.16;4925264;29;20052;-83
2022/01/20 08:04:01;;;;;;;0.52;0.52;;;;;;;-4.99;90.75;98050.66;4909710;29;20553;-82
2022/01/20 08:06:30;;;;;;;0.73;0.73;;;;;;;-4.95;90.96;98051.97;4925112;29;20051;-84
2022/01/20 08:09:08;;;;;;;0.60;0.60;;;;;;;-4.95;90.65;98051.97;4903266;29;20051;-83
2022/01/20 08:11:43;;;;;;;0.70;0.70;;;;;;;-4.92;90.63;98051.63;4909461;29;20142;-82
2022/01/20 08:14:53;;;;;;;0.50;0.50;;;;;;;-4.87;90.71;98040.59;4909265;29;20052;-83
2022/01/20 08:17:36;;;;;;;0.60;0.60;;;;;;;-4.83;90.77;98049.78;4919989;29;20562;-84
2022/01/20 08:20:08;;;;;;;0.70;0.70;;;;;;;-4.81;90.58;98051.28;4892315;29;20051;-84
2022/01/20 08:22:36;;;;;;;0.70;0.70;;;;;;;-4.79;90.54;98044.00;4929423;29;20058;-83
2022/01/20 08:25:09;;;;;;;0.70;0.70;;;;;;;-4.75;90.38;98043.69;4916988;29;20086;-81
2022/01/20 08:27:37;;;;;;;0.70;0.70;;;;;;;-4.75;90.28;98036.59;4931670;29;20213;-82
2022/01/20 08:30:07;;;;;;;0.60;0.60;;;;;;;-4.77;89.96;98025.41;4927579;29;20111;-81
2022/01/20 08:32:36;;;;;;;0.65;0.65;;;;;;;-4.80;89.88;98031.84;4923656;29;20054;-81
2022/01/20 08:35:20;;;;;;;0.80;0.80;;;;;;;-4.76;90.13;98013.06;4934777;29;20048;-82
2022/01/20 08:37:54;;;;;;;0.57;0.57;;;;;;;-4.74;90.06;98013.72;4938112;29;20051;-83
2022/01/20 08:40:24;;;;;;;0.70;0.70;;;;;;;-4.74;89.75;98034.78;4936381;29;20054;-82
2022/01/20 08:42:55;;;;;;;0.80;0.80;;;;;;;-4.81;89.56;98013.56;4920720;29;20080;-82
2022/01/20 08:45:29;;;;;;;0.80;0.80;;;;;;;-4.80;89.62;97996.81;4936350;29;20048;-82
2022/01/20 08:47:57;;;;;;;0.70;0.70;;;;;;;-4.75;89.63;98001.56;4952491;29;20051;-81
2022/01/20 08:50:35;;;;;;;0.90;0.90;;;;;;;-4.81;89.65;98008.31;4937261;29;20551;-82
2022/01/20 08:53:02;;;;;;;0.60;0.60;;;;;;;-4.77;89.83;97985.09;4935754;29;20051;-82
2022/01/20 08:55:30;;;;;;;0.70;0.70;;;;;;;-4.81;89.65;97969.66;4935611;29;20047;-80
2022/01/20 08:58:05;;;;;;;0.82;0.82;;;;;;;-4.79;89.83;97993.16;4935259;29;20058;-82
2022/01/20 09:00:36;;;;;;;0.68;0.68;;;;;;;-4.77;89.82;97962.22;4935760;29;20075;-83
2022/01/20 09:03:05;;;;;;;0.60;0.60;;;;;;;-4.83;89.97;97958.47;4935273;29;20103;-82
2022/01/20 09:05:33;;;;;;;0.60;0.60;;;;;;;-4.84;90.03;97962.09;4935339;29;20069;-82
2022/01/20 09:08:10;;;;;;;0.70;0.70;;;;;;;-4.75;90.30;97962.06;4934988;29;20064;-83
2022/01/20 09:10:39;;;;;;;0.70;0.70;;;;;;;-4.72;89.92;97946.75;4951872;29;20411;-82
2022/01/20 09:15:58;;;;;;;0.80;0.80;;;;;;;-4.77;89.67;97949.06;4935442;29;20134;-82
2022/01/20 09:18:51;;;;;;;0.70;0.70;;;;;;;-4.81;89.86;97956.50;4934604;29;20542;-82
2022/01/20 09:21:22;;;;;;;0.60;0.60;;;;;;;-4.78;89.72;97963.25;4935766;29;20082;-83
2022/01/20 09:23:55;;;;;;;0.98;0.98;;;;;;;-4.81;89.79;97950.41;4935919;29;20058;-83
2022/01/20 09:26:24;;;;;;;0.60;0.60;;;;;;;-4.76;90.22;97949.88;4936255;29;20048;-82
2022/01/20 09:28:55;;;;;;;0.70;0.70;;;;;;;-4.74;90.38;97937.38;4920928;29;20055;-82
2022/01/20 09:31:27;;;;;;;0.60;0.60;;;;;;;-4.67;90.50;97914.63;4951280;29;20047;-82
2022/01/20 09:33:56;;;;;;;0.70;0.70;;;;;;;-4.72;90.16;97922.22;4934388;29;20057;-82
2022/01/20 09:36:26;;;;;;;0.63;0.63;;;;;;;-4.71;90.17;97926.50;4935578;29;20055;-82
2022/01/20 09:38:56;;;;;;;0.80;0.80;;;;;;;-4.70;90.08;97915.00;4935506;29;20055;-83
2022/01/20 09:41:36;;;;;;;0.80;0.80;;;;;;;-4.71;90.10;97921.22;4935469;29;20107;-82
2022/01/20 09:44:05;;;;;;;0.80;0.80;;;;;;;-4.69;90.09;97919.25;4935109;29;20176;-82
2022/01/20 09:46:33;;;;;;;0.73;0.73;;;;;;;-4.66;89.83;97908.34;4935358;29;20514;-82
2022/01/20 09:49:20;;;;;;;0.63;0.63;;;;;;;-4.66;89.86;97911.84;4934153;29;20149;-82
2022/01/20 09:51:48;;;;;;;0.82;0.82;;;;;;;-4.61;89.92;97898.13;4935265;29;20051;-82
2022/01/20 09:54:24;;;;;;;0.70;0.70;;;;;;;-4.64;90.00;97899.28;4934656;29;20122;-82
2022/01/20 09:57:18;;;;;;;0.70;0.70;;;;;;;-4.60;89.54;97907.69;4935311;29;20055;-82
2022/01/20 09:59:52;;;;;;;0.90;0.90;;;;;;;-4.57;89.58;97923.13;4919847;29;20114;-81
2022/01/20 10:02:20;;;;;;;0.90;0.90;;;;;;;-4.58;89.19;97932.84;4935511;29;20511;-82
2022/01/20 10:04:55;;;;;;;0.80;0.80;;;;;;;-4.64;89.20;97874.78;4918973;29;20071;-82
2022/01/20 10:07:33;;;;;;;0.65;0.65;;;;;;;-4.68;89.29;97903.28;4934604;29;20055;-83
2022/01/20 10:10:10;;;;;;;0.80;0.80;;;;;;;-4.69;89.35;97904.25;4950507;29;20063;-82
2022/01/20 10:13:05;;;;;;;0.70;0.70;;;;;;;-4.61;89.14;97906.88;4935010;29;20059;-82
2022/01/20 10:16:08;;;;;;;0.70;0.70;;;;;;;-4.61;89.29;97909.50;4934302;29;20143;-82
2022/01/20 10:18:50;;;;;;;0.60;0.60;;;;;;;-4.60;88.96;97897.16;4934286;29;20114;-82
2022/01/20 10:21:27;;;;;;;0.90;0.90;;;;;;;-4.64;88.78;97895.84;4934390;29;20051;-82
2022/01/20 10:24:28;;;;;;;0.80;0.80;;;;;;;-4.63;89.12;97898.31;4922608;29;20060;-83
2022/01/20 10:27:12;;;;;;;0.75;0.75;;;;;;;-4.62;89.24;97892.03;4950158;29;20051;-82
2022/01/20 10:29:56;;;;;;;0.80;0.80;;;;;;;-4.69;88.77;97887.66;4918946;29;20047;-82
2022/01/20 10:32:41;;;;;;;0.70;0.70;;;;;;;-4.64;89.17;97901.09;4934035;29;20079;-82
2022/01/20 10:35:12;;;;;;;0.82;0.82;;;;;;;-4.63;89.21;97890.41;4934501;29;20048;-82
2022/01/20 10:37:41;;;;;;;0.80;0.80;;;;;;;-4.63;89.17;97868.53;4935776;29;20059;-83
2022/01/20 10:40:21;;;;;;;0.70;0.70;;;;;;;-4.63;89.07;97886.97;4934746;29;20525;-83
2022/01/20 10:42:55;;;;;;;0.70;0.70;;;;;;;-4.62;89.12;97896.50;4934223;29;20055;-82
2022/01/20 10:45:24;;;;;;;0.70;0.70;;;;;;;-4.61;89.12;97898.97;4918521;29;20130;-82
2022/01/20 10:47:54;;;;;;;0.57;0.57;;;;;;;-4.57;88.95;97891.53;4933419;29;20131;-84
2022/01/20 10:50:41;;;;;;;0.73;0.73;;;;;;;-4.59;89.09;97898.78;4927464;29;20052;-84
2022/01/20 10:53:18;;;;;;;0.65;0.65;;;;;;;-4.61;88.84;97890.22;4929444;29;20058;-82
2022/01/20 10:55:46;;;;;;;0.82;0.82;;;;;;;-4.65;88.94;97889.75;4928508;29;20051;-82
2022/01/20 10:58:22;;;;;;;0.70;0.70;;;;;;;-4.63;89.16;97913.31;4927366;29;20059;-85
2022/01/20 11:00:54;;;;;;;0.70;0.70;;;;;;;-4.61;89.40;97896.34;4930282;29;20455;-82
2022/01/20 11:03:28;;;;;;;1.00;1.00;;;;;;;-4.55;89.26;97891.38;4913026;29;20802;-83
2022/01/20 11:05:59;;;;;;;0.85;0.85;;;;;;;-4.55;89.31;97888.72;4919972;29;20055;-81
2022/01/20 11:08:55;;;;;;;0.75;0.75;;;;;;;-4.55;89.35;97902.72;4921359;29;20055;-81
2022/01/20 11:11:35;;;;;;;0.70;0.70;;;;;;;-4.57;89.17;97873.09;4934230;29;20414;-81
2022/01/20 11:14:08;;;;;;;0.57;0.57;;;;;;;-4.56;89.34;97866.81;4915493;29;20056;-82
2022/01/20 11:16:39;;;;;;;0.70;0.70;;;;;;;-4.50;89.40;97871.41;4929922;29;20052;-82
2022/01/20 11:19:36;;;;;;;0.88;0.88;;;;;;;-4.48;89.40;97882.59;4914170;29;20048;-82
2022/01/20 11:22:06;;;;;;;;;;;;;;;-4.45;89.22;97873.50;4912846;29;20112;-80
2022/01/20 11:24:36;;;;;;;0.93;0.93;;;;;;;-4.50;89.02;97881.94;4920113;29;19943;-82
2022/01/20 11:27:08;;;;;;;0.82;0.82;;;;;;;-4.51;89.16;97876.81;4931384;29;20043;-82
2022/01/20 11:30:12;;;;;;;0.93;0.93;;;;;;;-4.57;89.22;97883.63;4931821;29;20067;-81
2022/01/20 11:33:01;;;;;;;0.80;0.80;;;;;;;-4.57;89.48;97875.72;4933141;29;20059;-82
2022/01/20 11:35:40;;;;;;;0.60;0.60;;;;;;;-4.58;89.37;97871.47;4932996;29;20131;-82
2022/01/20 11:38:11;;;;;;;0.77;0.77;;;;;;;-4.53;89.52;97884.94;4899375;29;20059;-82
2022/01/20 11:40:57;;;;;;;0.60;0.60;;;;;;;-4.58;89.23;97879.38;4925003;29;20076;-81
2022/01/20 11:43:41;;;;;;;0.77;0.77;;;;;;;-4.62;89.31;97878.88;4919257;29;20107;-82
2022/01/20 11:46:14;;;;;;;0.70;0.70;;;;;;;-4.59;89.44;97864.53;4923708;29;20108;-82
2022/01/20 11:48:54;;;;;;;0.75;0.75;;;;;;;-4.61;89.66;97875.28;4918644;29;20052;-81
2022/01/20 11:51:42;;;;;;;0.90;0.90;;;;;;;-4.60;89.39;97860.28;4930506;29;20104;-84
2022/01/20 11:54:40;;;;;;;0.60;0.60;;;;;;;-4.62;89.43;97867.53;4936907;29;20059;-82
2022/01/20 11:57:18;;;;;;;0.82;0.82;;;;;;;-4.64;89.36;97865.06;4923402;29;20061;-82
2022/01/20 11:59:49;;;;;;;0.50;0.50;;;;;;;-4.64;89.25;97854.53;4918199;29;20091;-82
2022/01/20 12:02:32;;;;;;;0.80;0.80;;;;;;;-4.64;89.00;97848.44;4917200;29;20048;-82
2022/01/20 12:05:33;;;;;;;0.75;0.75;;;;;;;-4.67;89.01;97897.00;4941721;29;20044;-83
2022/01/20 12:08:20;;;;;;;0.90;0.90;;;;;;;-4.69;88.94;97885.84;4926606;29;20072;-79
2022/01/20 12:10:59;;;;;;;0.80;0.80;;;;;;;-4.67;88.99;97870.69;4920153;29;20534;-82
2022/01/20 12:13:30;;;;;;;0.60;0.60;;;;;;;-4.65;88.75;97866.06;4931435;29;20470;-82
2022/01/20 12:16:00;;;;;;;0.70;0.70;;;;;;;-4.67;88.85;97856.72;4931144;29;20056;-81
2022/01/20 12:18:29;;;;;;;0.73;0.73;;;;;;;-4.64;88.67;97869.50;4929365;29;20075;-82
2022/01/20 12:21:08;;;;;;;0.90;0.90;;;;;;;-4.65;88.68;97855.53;4913346;29;20052;-81
2022/01/20 12:23:47;;;;;;;0.65;0.65;;;;;;;-4.61;88.44;97848.09;4921016;29;20056;-82
2022/01/20 12:26:14;;;;;;;0.70;0.70;;;;;;;-4.62;88.27;97863.09;4918857;29;20060;-83
2022/01/20 12:28:41;;;;;;;0.70;0.70;;;;;;;-4.59;88.47;97869.81;4921688;29;20055;-81
2022/01/20 12:31:09;;;;;;;0.68;0.68;;;;;;;-4.55;88.46;97865.84;4914206;29;20051;-82
2022/01/20 12:33:45;;;;;;;0.65;0.65;;;;;;;-4.54;88.33;97859.56;4929122;29;20586;-82
2022/01/20 12:36:14;;;;;;;0.65;0.65;;;;;;;-4.53;88.41;97849.84;4926177;29;20052;-82
2022/01/20 12:38:45;;;;;;;0.75;0.75;;;;;;;-4.52;88.31;97860.22;4914911;29;20055;-81
2022/01/20 12:41:23;;;;;;;0.57;0.57;;;;;;;-4.56;87.95;97843.13;4925740;29;20056;-82
2022/01/20 12:43:54;;;;;;;0.65;0.65;;;;;;;-4.61;88.19;97850.72;4914742;29;20056;-82
2022/01/20 12:46:28;;;;;;;0.90;0.90;;;;;;;-4.56;88.21;97851.03;4920997;29;20151;-84
2022/01/20 12:49:12;;;;;;;0.45;0.45;;;;;;;-4.57;87.92;97854.66;4920348;29;20080;-82
2022/01/20 12:51:51;;;;;;;0.70;0.70;;;;;;;-4.57;88.02;97833.59;4926690;29;20580;-83
2022/01/20 12:54:27;;;;;;;0.73;0.73;;;;;;;-4.61;88.24;97834.94;4932810;29;20053;-82
2022/01/20 12:56:57;;;;;;;0.80;0.80;;;;;;;-4.61;88.02;97863.91;4934333;29;20515;-81
2022/01/20 12:59:36;;;;;;;0.80;0.80;;;;;;;-4.68;88.47;97826.94;4930877;29;20059;-82
2022/01/20 13:02:24;;;;;;;0.80;0.80;;;;;;;-4.67;88.49;97848.81;4933004;29;20052;-82